createdAt,value
2016-04-27T00:00:15.888Z,44.68
2016-04-27T00:01:15.937Z,44.49
2016-04-27T00:02:16.002Z,44.68
2016-04-27T00:03:16.037Z,44.49
2016-04-27T00:04:16.086Z,44.49
2016-04-27T00:05:16.135Z,44.49
2016-04-27T00:06:16.248Z,44.78
2016-04-27T00:07:16.234Z,44.59
2016-04-27T00:08:16.301Z,44.59
2016-04-27T00:09:16.349Z,44.59
2016-04-27T00:10:16.398Z,44.78
2016-04-27T00:11:16.448Z,44.78
2016-04-27T00:12:16.498Z,44.59
2016-04-27T00:13:16.548Z,44.78
2016-04-27T00:14:16.597Z,44.97
2016-04-27T00:15:16.662Z,44.87
2016-04-27T00:16:16.696Z,45.07
2016-04-27T00:17:16.745Z,45.36
2016-04-27T00:18:16.811Z,45.36
2016-04-27T00:19:16.860Z,45.16
2016-04-27T00:20:16.895Z,45.36
2016-04-27T00:21:16.960Z,44.87
2016-04-27T00:22:16.291Z,45.07
2016-04-27T00:23:17.059Z,45.07
2016-04-27T00:24:17.108Z,44.97
2016-04-27T00:25:17.158Z,45.26
2016-04-27T00:26:17.207Z,44.97
2016-04-27T00:27:17.257Z,45.74
2016-04-27T00:28:17.307Z,45.64
2016-04-27T00:29:17.357Z,45.07
2016-04-27T00:30:17.405Z,44.87
2016-04-27T00:31:17.455Z,45.07
2016-04-27T00:32:17.505Z,45.16
2016-04-27T00:33:17.571Z,45.36
2016-04-27T00:34:17.604Z,45.16
2016-04-27T00:35:17.654Z,45.16
2016-04-27T00:36:17.562Z,45.07
2016-04-27T00:37:18.674Z,45.26
2016-04-27T00:38:17.818Z,45.26
2016-04-27T00:39:17.883Z,45.36
2016-04-27T00:40:17.957Z,45.36
2016-04-27T00:41:17.957Z,45.45
2016-04-27T00:42:18.228Z,45.45
2016-04-27T00:43:18.096Z,45.16
2016-04-27T00:44:18.096Z,45.54
2016-04-27T00:45:18.152Z,45.45
2016-04-27T00:46:18.202Z,45.36
2016-04-27T00:47:18.251Z,45.26
2016-04-27T00:48:18.317Z,45.36
2016-04-27T00:49:27.945Z,45.74
2016-04-27T00:50:18.416Z,45.26
2016-04-27T00:51:18.856Z,45.36
2016-04-27T00:52:18.500Z,45.26
2016-04-27T00:53:18.564Z,45.07
2016-04-27T00:54:18.597Z,45.26
2016-04-27T00:55:18.648Z,45.07
2016-04-27T00:56:18.729Z,45.64
2016-04-27T00:57:18.763Z,45.36
2016-04-27T00:58:18.811Z,45.45
2016-04-27T00:59:18.862Z,45.93
2016-04-27T01:00:18.911Z,45.36
2016-04-27T01:01:18.961Z,45.36
2016-04-27T01:02:19.027Z,45.64
2016-04-27T01:03:19.075Z,45.54
2016-04-27T01:04:19.125Z,45.45
2016-04-27T01:05:19.174Z,45.07
2016-04-27T01:06:19.319Z,45.26
2016-04-27T01:07:19.258Z,46.31
2016-04-27T01:08:19.307Z,46.1
2016-04-27T01:09:19.374Z,46.03
2016-04-27T01:10:19.407Z,46.22
2016-04-27T01:11:19.471Z,46.77
2016-04-27T01:12:19.521Z,45.93
2016-04-27T01:13:19.571Z,45.26
2016-04-27T01:14:19.621Z,45.16
2016-04-27T01:15:19.670Z,45.45
2016-04-27T01:16:19.704Z,46.12
2016-04-27T01:17:19.785Z,45.54
2016-04-27T01:18:19.084Z,45.45
2016-04-27T01:19:19.868Z,45.36
2016-04-27T01:20:19.918Z,45.45
2016-04-27T01:21:19.827Z,45.36
2016-04-27T01:22:19.867Z,45.52
2016-04-27T01:23:24.621Z,45.43
2016-04-27T01:24:20.124Z,45.54
2016-04-27T01:25:20.174Z,45.23
2016-04-27T01:26:20.223Z,45.62
2016-04-27T01:27:20.272Z,45.43
2016-04-27T01:28:20.322Z,46.31
2016-04-27T01:29:20.372Z,45.72
2016-04-27T01:30:20.438Z,45.74
2016-04-27T01:31:20.471Z,45.45
2016-04-27T01:32:20.521Z,46.03
2016-04-27T01:33:20.571Z,46.03
2016-04-27T01:34:20.620Z,45.83
2016-04-27T01:35:20.669Z,45.33
2016-04-27T01:36:20.719Z,45.83
2016-04-27T01:37:20.769Z,45.64
2016-04-27T01:38:20.834Z,46.39
2016-04-27T01:39:20.883Z,46.03
2016-04-27T01:40:20.932Z,46.12
2016-04-27T01:41:20.982Z,46.22
2016-04-27T01:42:21.016Z,46.31
2016-04-27T01:43:21.081Z,46.12
2016-04-27T01:44:21.131Z,46.12
2016-04-27T01:45:21.181Z,46.41
2016-04-27T01:46:21.231Z,46.12
2016-04-27T01:47:21.279Z,46.03
2016-04-27T01:48:21.189Z,45.93
2016-04-27T01:49:21.379Z,45.81
2016-04-27T01:50:21.430Z,46.03
2016-04-27T01:51:22.948Z,46
2016-04-27T01:52:21.544Z,46
2016-04-27T01:53:21.579Z,45.9
2016-04-27T01:54:21.643Z,46.1
2016-04-27T01:55:21.676Z,46
2016-04-27T01:56:21.743Z,45.74
2016-04-27T01:57:21.776Z,46
2016-04-27T01:58:21.826Z,45.9
2016-04-27T01:59:21.875Z,46
2016-04-27T02:00:21.925Z,45.9
2016-04-27T02:01:21.990Z,45.9
2016-04-27T02:02:21.868Z,46.1
2016-04-27T02:03:22.105Z,45.9
2016-04-27T02:04:22.155Z,45.81
2016-04-27T02:05:22.189Z,46.48
2016-04-27T02:06:22.567Z,46.29
2016-04-27T02:07:22.288Z,46.1
2016-04-27T02:08:23.666Z,46.29
2016-04-27T02:09:22.387Z,46.29
2016-04-27T02:10:22.437Z,46.39
2016-04-27T02:11:22.486Z,46.77
2016-04-27T02:12:22.535Z,46.29
2016-04-27T02:13:22.632Z,46.48
2016-04-27T02:14:22.650Z,46.39
2016-04-27T02:15:22.699Z,46.39
2016-04-27T02:16:22.749Z,46.48
2016-04-27T02:17:22.783Z,46.39
2016-04-27T02:18:22.849Z,46.29
2016-04-27T02:19:22.882Z,46
2016-04-27T02:20:22.932Z,45.9
2016-04-27T02:21:22.841Z,46.58
2016-04-27T02:22:23.032Z,46.39
2016-04-27T02:23:23.096Z,46.19
2016-04-27T02:24:23.146Z,46.19
2016-04-27T02:25:23.196Z,46.58
2016-04-27T02:26:23.246Z,47.27
2016-04-27T02:27:23.294Z,47.15
2016-04-27T02:28:23.359Z,47.25
2016-04-27T02:29:23.394Z,46.19
2016-04-27T02:30:23.443Z,46.29
2016-04-27T02:31:23.492Z,47.73
2016-04-27T02:32:23.542Z,46.86
2016-04-27T02:33:23.592Z,46.67
2016-04-27T02:34:23.642Z,47.82
2016-04-27T02:35:23.691Z,46.96
2016-04-27T02:36:23.601Z,47.34
2016-04-27T02:37:23.805Z,47.82
2016-04-27T02:38:23.856Z,47.73
2016-04-27T02:39:23.905Z,47.34
2016-04-27T02:40:23.955Z,47.34
2016-04-27T02:41:24.005Z,47.15
2016-04-27T02:42:24.061Z,47.34
2016-04-27T02:43:24.152Z,46.67
2016-04-27T02:44:24.228Z,47.06
2016-04-27T02:45:24.336Z,46.96
2016-04-27T02:46:24.427Z,47.92
2016-04-27T02:47:24.513Z,47.34
2016-04-27T02:48:24.579Z,47.15
2016-04-27T02:49:24.659Z,47.34
2016-04-27T02:50:24.709Z,47.34
2016-04-27T02:51:25.445Z,47.34
2016-04-27T02:52:26.383Z,47.34
2016-04-27T02:53:24.892Z,47.06
2016-04-27T02:54:24.946Z,47.34
2016-04-27T02:55:25.017Z,47.44
2016-04-27T02:56:25.071Z,47.34
2016-04-27T02:57:24.376Z,47.34
2016-04-27T02:58:25.177Z,47.15
2016-04-27T02:59:25.214Z,47.82
2016-04-27T03:00:25.265Z,47.34
2016-04-27T03:01:25.316Z,47.82
2016-04-27T03:02:25.368Z,47.34
2016-04-27T03:03:25.418Z,47.34
2016-04-27T03:04:25.469Z,47.44
2016-04-27T03:05:25.550Z,46.67
2016-04-27T03:06:26.101Z,47.34
2016-04-27T03:07:25.682Z,47.53
2016-04-27T03:08:25.685Z,47.53
2016-04-27T03:09:25.736Z,47.53
2016-04-27T03:10:25.785Z,47.82
2016-04-27T03:11:25.834Z,47.82
2016-04-27T03:12:25.885Z,47.53
2016-04-27T03:13:25.935Z,47.44
2016-04-27T03:14:25.984Z,47.44
2016-04-27T03:15:26.033Z,47.25
2016-04-27T03:16:26.083Z,47.34
2016-04-27T03:17:26.133Z,47.15
2016-04-27T03:18:26.182Z,47.44
2016-04-27T03:19:26.231Z,47.53
2016-04-27T03:20:26.297Z,47.34
2016-04-27T03:21:26.331Z,47.34
2016-04-27T03:22:26.396Z,47.53
2016-04-27T03:23:26.430Z,47.34
2016-04-27T03:24:26.480Z,47.44
2016-04-27T03:25:26.561Z,47.15
2016-04-27T03:26:26.579Z,47.44
2016-04-27T03:27:26.643Z,47.53
2016-04-27T03:28:26.741Z,47.44
2016-04-27T03:29:26.743Z,47.63
2016-04-27T03:30:26.793Z,47.44
2016-04-27T03:31:26.843Z,47.15
2016-04-27T03:32:26.891Z,47.53
2016-04-27T03:33:26.957Z,47.34
2016-04-27T03:34:26.991Z,47.53
2016-04-27T03:35:27.040Z,47.63
2016-04-27T03:36:26.934Z,47.44
2016-04-27T03:37:27.812Z,47.44
2016-04-27T03:38:27.220Z,47.15
2016-04-27T03:39:27.239Z,47.25
2016-04-27T03:40:27.288Z,47.53
2016-04-27T03:41:27.353Z,47.53
2016-04-27T03:42:27.387Z,47.34
2016-04-27T03:43:27.437Z,47.63
2016-04-27T03:44:27.502Z,47.53
2016-04-27T03:45:27.551Z,47.53
2016-04-27T03:46:27.601Z,47.34
2016-04-27T03:47:27.636Z,47.53
2016-04-27T03:48:27.700Z,47.53
2016-04-27T03:49:27.750Z,47.34
2016-04-27T03:50:27.783Z,47.44
2016-04-27T03:51:27.959Z,47.53
2016-04-27T03:52:27.899Z,47.53
2016-04-27T03:53:27.948Z,47.63
2016-04-27T03:54:27.998Z,47.53
2016-04-27T03:55:28.047Z,47.53
2016-04-27T03:56:28.097Z,47.82
2016-04-27T03:57:28.146Z,47.53
2016-04-27T03:58:28.196Z,47.73
2016-04-27T03:59:28.246Z,47.63
2016-04-27T04:00:28.310Z,47.34
2016-04-27T04:01:28.344Z,47.53
2016-04-27T04:02:28.410Z,47.63
2016-04-27T04:03:28.444Z,47.44
2016-04-27T04:04:28.493Z,47.25
2016-04-27T04:05:28.560Z,47.34
2016-04-27T04:06:28.687Z,47.63
2016-04-27T04:07:28.643Z,48.11
2016-04-27T04:08:28.693Z,48.3
2016-04-27T04:09:28.758Z,48.4
2016-04-27T04:10:28.807Z,48.4
2016-04-27T04:11:28.858Z,48.49
2016-04-27T04:12:28.891Z,48.11
2016-04-27T04:13:28.956Z,48.3
2016-04-27T04:14:28.990Z,48.4
2016-04-27T04:15:29.040Z,48.4
2016-04-27T04:16:29.104Z,48.4
2016-04-27T04:17:29.155Z,48.4
2016-04-27T04:18:29.188Z,48.4
2016-04-27T04:19:29.254Z,48.3
2016-04-27T04:20:29.304Z,48.4
2016-04-27T04:21:29.353Z,48.3
2016-04-27T04:22:29.250Z,48.4
2016-04-27T04:23:29.471Z,48.02
2016-04-27T04:24:29.505Z,48.97
2016-04-27T04:25:29.554Z,48.11
2016-04-27T04:26:29.605Z,48.21
2016-04-27T04:27:29.654Z,48.21
2016-04-27T04:28:29.704Z,48.3
2016-04-27T04:29:29.753Z,48.3
2016-04-27T04:30:29.803Z,48.3
2016-04-27T04:31:29.852Z,48.4
2016-04-27T04:32:29.902Z,48.3
2016-04-27T04:33:29.967Z,48.3
2016-04-27T04:34:30.001Z,48.21
2016-04-27T04:35:30.050Z,48.11
2016-04-27T04:36:29.959Z,48.02
2016-04-27T04:37:30.931Z,48.3
2016-04-27T04:38:30.215Z,48.21
2016-04-27T04:39:30.264Z,48.49
2016-04-27T04:40:30.314Z,48.49
2016-04-27T04:41:30.364Z,48.3
2016-04-27T04:42:30.412Z,48.49
2016-04-27T04:43:30.463Z,48.49
2016-04-27T04:44:30.497Z,48.59
2016-04-27T04:45:30.562Z,48.59
2016-04-27T04:46:30.611Z,48.69
2016-04-27T04:47:30.661Z,48.49
2016-04-27T04:48:30.711Z,48.21
2016-04-27T04:49:30.760Z,48.11
2016-04-27T04:50:30.809Z,48.88
2016-04-27T04:51:36.562Z,48.78
2016-04-27T04:52:30.924Z,48.78
2016-04-27T04:53:30.959Z,48.11
2016-04-27T04:54:31.024Z,48.21
2016-04-27T04:55:31.057Z,48.11
2016-04-27T04:56:31.107Z,48.88
2016-04-27T04:57:31.157Z,48.66
2016-04-27T04:58:31.221Z,48.4
2016-04-27T04:59:31.255Z,48.78
2016-04-27T05:00:31.306Z,48.69
2016-04-27T05:01:31.355Z,48.69
2016-04-27T05:02:31.405Z,48.69
2016-04-27T05:03:31.469Z,48.69
2016-04-27T05:04:31.519Z,48.59
2016-04-27T05:05:31.554Z,48.59
2016-04-27T05:06:35.477Z,48.59
2016-04-27T05:07:31.652Z,48.78
2016-04-27T05:08:31.701Z,48.69
2016-04-27T05:09:31.767Z,48.57
2016-04-27T05:10:31.817Z,48.69
2016-04-27T05:11:31.851Z,48.69
2016-04-27T05:12:31.901Z,48.69
2016-04-27T05:13:31.965Z,48.88
2016-04-27T05:14:31.999Z,48.69
2016-04-27T05:15:32.080Z,48.69
2016-04-27T05:16:32.129Z,48.47
2016-04-27T05:17:32.163Z,48.66
2016-04-27T05:18:32.213Z,48.59
2016-04-27T05:19:32.278Z,48.69
2016-04-27T05:20:32.328Z,48.69
2016-04-27T05:21:32.362Z,48.66
2016-04-27T05:22:32.427Z,48.57
2016-04-27T05:23:32.461Z,48.75
2016-04-27T05:24:32.510Z,48.66
2016-04-27T05:25:32.560Z,48.75
2016-04-27T05:26:32.610Z,48.66
2016-04-27T05:27:32.658Z,48.66
2016-04-27T05:28:32.725Z,48.66
2016-04-27T05:29:32.774Z,48.59
2016-04-27T05:30:32.824Z,49.14
2016-04-27T05:31:32.858Z,48.38
2016-04-27T05:32:32.907Z,48.66
2016-04-27T05:33:32.957Z,48.75
2016-04-27T05:34:33.006Z,48.57
2016-04-27T05:35:33.055Z,48.59
2016-04-27T05:36:33.121Z,48.49
2016-04-27T05:37:33.171Z,46.55
2016-04-27T05:38:33.204Z,45.31
2016-04-27T05:39:33.270Z,45.59
2016-04-27T05:40:33.335Z,47.32
2016-04-27T05:41:33.368Z,47.82
2016-04-27T05:42:33.418Z,48.28
2016-04-27T05:43:33.467Z,48.38
2016-04-27T05:44:33.517Z,48.38
2016-04-27T05:45:33.567Z,48.49
2016-04-27T05:46:33.632Z,48.38
2016-04-27T05:47:33.682Z,48.57
2016-04-27T05:48:33.715Z,48.38
2016-04-27T05:49:33.812Z,48.38
2016-04-27T05:50:33.814Z,48.38
2016-04-27T05:51:33.864Z,48.09
2016-04-27T05:52:34.117Z,48.28
2016-04-27T05:53:33.979Z,48.28
2016-04-27T05:54:34.028Z,48.28
2016-04-27T05:55:34.063Z,48.66
2016-04-27T05:56:34.112Z,48.66
2016-04-27T05:57:34.162Z,47.51
2016-04-27T05:58:34.211Z,46.36
2016-04-27T05:59:34.261Z,45.69
2016-04-27T06:00:34.310Z,45.02
2016-04-27T06:01:34.375Z,45.02
2016-04-27T06:02:34.425Z,44.45
2016-04-27T06:03:34.475Z,44.16
2016-04-27T06:04:34.524Z,44.54
2016-04-27T06:05:34.574Z,44.73
2016-04-27T06:06:34.623Z,44.54
2016-04-27T06:07:35.173Z,44.54
2016-04-27T06:08:34.723Z,44.26
2016-04-27T06:09:34.756Z,43.68
2016-04-27T06:10:34.822Z,43.76
2016-04-27T06:11:34.871Z,44.33
2016-04-27T06:12:34.905Z,44.13
2016-04-27T06:13:34.971Z,44.04
2016-04-27T06:14:35.020Z,43.85
2016-04-27T06:15:35.085Z,43.27
2016-04-27T06:16:35.103Z,42.9
2016-04-27T06:17:34.418Z,43.37
2016-04-27T06:18:35.218Z,44.04
2016-04-27T06:19:35.267Z,43.66
2016-04-27T06:20:35.318Z,42.9
2016-04-27T06:21:35.367Z,43.63
2016-04-27T06:22:36.573Z,43.35
2016-04-27T06:23:35.467Z,43.54
2016-04-27T06:24:35.516Z,43.44
2016-04-27T06:25:35.565Z,43.63
2016-04-27T06:26:35.614Z,43.83
2016-04-27T06:27:35.664Z,43.63
2016-04-27T06:28:35.714Z,43.73
2016-04-27T06:29:35.763Z,43.83
2016-04-27T06:30:35.813Z,44.12
2016-04-27T06:31:35.863Z,43.83
2016-04-27T06:32:35.912Z,43.35
2016-04-27T06:33:35.961Z,43.54
2016-04-27T06:34:36.011Z,43.54
2016-04-27T06:35:36.060Z,43.26
2016-04-27T06:36:36.110Z,43.83
2016-04-27T06:37:36.643Z,43.26
2016-04-27T06:38:36.210Z,43.26
2016-04-27T06:39:36.259Z,44.02
2016-04-27T06:40:36.324Z,44.5
2016-04-27T06:41:36.358Z,44.12
2016-04-27T06:42:36.423Z,43.73
2016-04-27T06:43:36.457Z,43.35
2016-04-27T06:44:36.507Z,43.44
2016-04-27T06:45:36.556Z,44.02
2016-04-27T06:46:36.606Z,43.92
2016-04-27T06:47:36.656Z,43.73
2016-04-27T06:48:36.706Z,43.92
2016-04-27T06:49:36.755Z,44.12
2016-04-27T06:50:36.804Z,43.44
2016-04-27T06:51:36.853Z,43.44
2016-04-27T06:52:36.748Z,43.54
2016-04-27T06:53:36.953Z,43.92
2016-04-27T06:54:37.003Z,43.54
2016-04-27T06:55:37.052Z,43.54
2016-04-27T06:56:37.102Z,43.92
2016-04-27T06:57:37.151Z,43.63
2016-04-27T06:58:37.201Z,43.44
2016-04-27T06:59:37.266Z,44.02
2016-04-27T07:00:37.300Z,43.73
2016-04-27T07:01:37.350Z,43.92
2016-04-27T07:02:37.399Z,43.83
2016-04-27T07:03:37.449Z,43.44
2016-04-27T07:04:37.498Z,44.12
2016-04-27T07:05:37.547Z,44.02
2016-04-27T07:06:37.597Z,44.12
2016-04-27T07:07:38.632Z,43.73
2016-04-27T07:08:37.681Z,44.12
2016-04-27T07:09:37.746Z,44.69
2016-04-27T07:10:37.796Z,44.31
2016-04-27T07:11:37.861Z,44.69
2016-04-27T07:12:37.895Z,44.88
2016-04-27T07:13:37.929Z,44.59
2016-04-27T07:14:37.993Z,44.79
2016-04-27T07:15:38.043Z,45.55
2016-04-27T07:16:38.077Z,44.88
2016-04-27T07:17:38.143Z,45.07
2016-04-27T07:18:38.177Z,45.17
2016-04-27T07:19:38.226Z,45.36
2016-04-27T07:20:38.276Z,44.98
2016-04-27T07:21:38.340Z,45.38
2016-04-27T07:22:38.265Z,46.03
2016-04-27T07:23:38.439Z,45.76
2016-04-27T07:24:38.490Z,46.62
2016-04-27T07:25:38.539Z,46.05
2016-04-27T07:26:38.588Z,46.15
2016-04-27T07:27:38.639Z,46.05
2016-04-27T07:28:38.688Z,46.05
2016-04-27T07:29:38.721Z,45.96
2016-04-27T07:30:38.803Z,46.62
2016-04-27T07:31:39.836Z,45.09
2016-04-27T07:32:38.870Z,45.29
2016-04-27T07:33:38.920Z,45.57
2016-04-27T07:34:38.969Z,45.96
2016-04-27T07:35:39.019Z,45.76
2016-04-27T07:36:40.881Z,46.05
2016-04-27T07:37:41.477Z,46.15
2016-04-27T07:38:39.183Z,46.62
2016-04-27T07:39:39.218Z,47.01
2016-04-27T07:40:39.266Z,46.34
2016-04-27T07:41:41.660Z,46.15
2016-04-27T07:42:39.366Z,46.34
2016-04-27T07:43:39.416Z,46.15
2016-04-27T07:44:39.465Z,46.25
2016-04-27T07:45:39.529Z,46.53
2016-04-27T07:46:39.565Z,46.44
2016-04-27T07:47:39.615Z,46.15
2016-04-27T07:48:39.695Z,46.15
2016-04-27T07:49:39.760Z,46.25
2016-04-27T07:50:39.778Z,46.25
2016-04-27T07:51:43.375Z,46.25
2016-04-27T07:52:40.409Z,46.05
2016-04-27T07:53:39.176Z,45.96
2016-04-27T07:54:39.992Z,45.86
2016-04-27T07:55:40.011Z,46.15
2016-04-27T07:56:41.747Z,46.62
2016-04-27T07:57:40.109Z,45.96
2016-04-27T07:58:40.158Z,46.05
2016-04-27T07:59:40.208Z,46.05
2016-04-27T08:00:40.258Z,45.96
2016-04-27T08:01:40.323Z,45.38
2016-04-27T08:02:40.217Z,46.25
2016-04-27T08:03:40.407Z,45.86
2016-04-27T08:04:40.456Z,45.86
2016-04-27T08:05:40.521Z,45.86
2016-04-27T08:06:42.728Z,46.53
2016-04-27T08:07:41.324Z,46.05
2016-04-27T08:08:40.671Z,45.86
2016-04-27T08:09:40.704Z,45.86
2016-04-27T08:10:40.754Z,45.86
2016-04-27T08:11:44.632Z,45.76
2016-04-27T08:12:40.868Z,46.15
2016-04-27T08:13:40.918Z,46.53
2016-04-27T08:14:40.968Z,45.96
2016-04-27T08:15:41.018Z,45.76
2016-04-27T08:16:41.067Z,45.96
2016-04-27T08:17:41.101Z,45.96
2016-04-27T08:18:41.165Z,45.96
2016-04-27T08:19:41.201Z,45.86
2016-04-27T08:20:41.249Z,45.67
2016-04-27T08:21:42.159Z,46.05
2016-04-27T08:22:41.349Z,46.05
2016-04-27T08:23:41.414Z,45.59
2016-04-27T08:24:41.448Z,46.36
2016-04-27T08:25:41.512Z,45.57
2016-04-27T08:26:42.906Z,45.59
2016-04-27T08:27:41.611Z,45.4
2016-04-27T08:28:41.646Z,45.5
2016-04-27T08:29:41.727Z,46.46
2016-04-27T08:30:41.745Z,45.4
2016-04-27T08:31:42.092Z,45.4
2016-04-27T08:32:41.857Z,45.5
2016-04-27T08:33:41.907Z,45.67
2016-04-27T08:34:41.941Z,45.69
2016-04-27T08:35:42.005Z,45.69
2016-04-27T08:36:44.572Z,45.69
2016-04-27T08:37:42.777Z,45.48
2016-04-27T08:38:42.155Z,46.17
2016-04-27T08:39:42.204Z,45.79
2016-04-27T08:40:42.254Z,45.4
2016-04-27T08:41:42.147Z,45.59
2016-04-27T08:42:42.352Z,45.69
2016-04-27T08:43:42.402Z,45.5
2016-04-27T08:44:42.451Z,45.59
2016-04-27T08:45:42.502Z,45.59
2016-04-27T08:46:42.582Z,45.31
2016-04-27T08:47:42.600Z,45.4
2016-04-27T08:48:42.651Z,45.5
2016-04-27T08:49:42.715Z,46.08
2016-04-27T08:50:42.749Z,45.29
2016-04-27T08:51:42.799Z,45.31
2016-04-27T08:52:42.864Z,45.12
2016-04-27T08:53:42.898Z,45.12
2016-04-27T08:54:42.947Z,45.12
2016-04-27T08:55:42.998Z,45.31
2016-04-27T08:56:43.047Z,45.21
2016-04-27T08:57:43.111Z,45.21
2016-04-27T08:58:43.146Z,45.79
2016-04-27T08:59:44.133Z,45.4
2016-04-27T09:00:43.261Z,45.79
2016-04-27T09:01:43.310Z,45.12
2016-04-27T09:02:43.391Z,45.12
2016-04-27T09:03:43.425Z,45.12
2016-04-27T09:04:43.475Z,45.79
2016-04-27T09:05:43.524Z,45.21
2016-04-27T09:06:43.558Z,45.21
2016-04-27T09:07:43.623Z,45.21
2016-04-27T09:08:43.657Z,45.79
2016-04-27T09:09:44.363Z,45.4
2016-04-27T09:10:43.772Z,45.5
2016-04-27T09:11:43.822Z,45.69
2016-04-27T09:12:43.840Z,45.02
2016-04-27T09:13:43.920Z,44.93
2016-04-27T09:14:43.970Z,45.21
2016-04-27T09:15:44.019Z,45.02
2016-04-27T09:16:44.397Z,45.31
2016-04-27T09:17:44.119Z,45.31
2016-04-27T09:18:44.152Z,44.83
2016-04-27T09:19:44.202Z,45.02
2016-04-27T09:20:44.252Z,45.02
2016-04-27T09:21:44.317Z,44.83
2016-04-27T09:22:45.007Z,44.54
2016-04-27T09:23:44.401Z,44.64
2016-04-27T09:24:44.465Z,44.93
2016-04-27T09:25:44.515Z,45.12
2016-04-27T09:26:45.173Z,44.83
2016-04-27T09:27:44.615Z,44.93
2016-04-27T09:28:44.679Z,45.02
2016-04-27T09:29:44.698Z,44.93
2016-04-27T09:30:44.763Z,45.21
2016-04-27T09:31:44.812Z,44.54
2016-04-27T09:32:44.878Z,44.83
2016-04-27T09:33:44.912Z,44.83
2016-04-27T09:34:44.977Z,45.02
2016-04-27T09:35:45.027Z,44.54
2016-04-27T09:36:45.092Z,44.16
2016-04-27T09:37:44.485Z,44.16
2016-04-27T09:38:45.160Z,43.97
2016-04-27T09:39:45.208Z,44.16
2016-04-27T09:40:45.291Z,43.97
2016-04-27T09:41:45.308Z,44.06
2016-04-27T09:42:45.374Z,44.35
2016-04-27T09:43:45.408Z,44.06
2016-04-27T09:44:45.472Z,44.64
2016-04-27T09:45:45.507Z,44.54
2016-04-27T09:46:45.603Z,44.54
2016-04-27T09:47:45.637Z,44.73
2016-04-27T09:48:45.671Z,44.83
2016-04-27T09:49:45.690Z,44.93
2016-04-27T09:50:45.755Z,44.83
2016-04-27T09:51:45.804Z,44.93
2016-04-27T09:52:45.698Z,45.02
2016-04-27T09:53:45.919Z,44.93
2016-04-27T09:54:45.968Z,44.93
2016-04-27T09:55:46.001Z,45.02
2016-04-27T09:56:46.240Z,45.02
2016-04-27T09:57:46.101Z,44.93
2016-04-27T09:58:46.167Z,45.02
2016-04-27T09:59:46.217Z,45.02
2016-04-27T10:00:46.250Z,45.12
2016-04-27T10:01:47.784Z,44.64
2016-04-27T10:02:46.365Z,45.02
2016-04-27T10:03:46.398Z,45.02
2016-04-27T10:04:46.464Z,45.21
2016-04-27T10:05:46.514Z,45.21
2016-04-27T10:06:46.548Z,44.93
2016-04-27T10:07:46.597Z,45.02
2016-04-27T10:08:46.661Z,44.73
2016-04-27T10:09:46.697Z,44.93
2016-04-27T10:10:46.761Z,45.02
2016-04-27T10:11:47.935Z,44.93
2016-04-27T10:12:46.861Z,44.93
2016-04-27T10:13:46.910Z,44.54
2016-04-27T10:14:46.944Z,44.83
2016-04-27T10:15:47.009Z,44.64
2016-04-27T10:16:47.294Z,44.93
2016-04-27T10:17:47.093Z,45.31
2016-04-27T10:18:47.143Z,45.02
2016-04-27T10:19:47.224Z,45.12
2016-04-27T10:20:47.257Z,44.93
2016-04-27T10:21:47.557Z,45.12
2016-04-27T10:22:47.295Z,44.83
2016-04-27T10:23:47.423Z,45.02
2016-04-27T10:24:47.472Z,44.64
2016-04-27T10:25:47.492Z,44.93
2016-04-27T10:26:47.572Z,44.54
2016-04-27T10:27:47.622Z,44.83
2016-04-27T10:28:47.641Z,44.83
2016-04-27T10:29:47.690Z,44.83
2016-04-27T10:30:47.756Z,44.73
2016-04-27T10:31:49.008Z,44.93
2016-04-27T10:32:47.839Z,44.93
2016-04-27T10:33:47.920Z,44.83
2016-04-27T10:34:47.954Z,44.83
2016-04-27T10:35:48.003Z,44.73
2016-04-27T10:36:49.209Z,44.83
2016-04-27T10:37:47.962Z,44.83
2016-04-27T10:38:48.152Z,44.83
2016-04-27T10:39:48.202Z,44.93
2016-04-27T10:40:48.250Z,44.83
2016-04-27T10:41:49.020Z,44.83
2016-04-27T10:42:48.335Z,44.83
2016-04-27T10:43:48.416Z,45.02
2016-04-27T10:44:48.449Z,44.93
2016-04-27T10:45:48.577Z,44.83
2016-04-27T10:46:50.502Z,44.83
2016-04-27T10:47:48.630Z,44.54
2016-04-27T10:48:48.663Z,44.93
2016-04-27T10:49:48.697Z,44.64
2016-04-27T10:50:48.747Z,44.83
2016-04-27T10:51:50.171Z,45.02
2016-04-27T10:52:49.846Z,44.83
2016-04-27T10:53:49.333Z,44.83
2016-04-27T10:54:48.961Z,44.93
2016-04-27T10:55:48.995Z,44.83
2016-04-27T10:56:49.043Z,44.73
2016-04-27T10:57:49.126Z,44.73
2016-04-27T10:58:49.159Z,44.73
2016-04-27T10:59:49.193Z,44.73
2016-04-27T11:00:49.277Z,44.73
2016-04-27T11:01:49.296Z,45.02
2016-04-27T11:02:49.361Z,44.83
2016-04-27T11:03:49.395Z,44.73
2016-04-27T11:04:49.445Z,44.83
2016-04-27T11:05:49.510Z,44.83
2016-04-27T11:06:49.543Z,44.83
2016-04-27T11:07:50.344Z,44.73
2016-04-27T11:08:49.690Z,44.93
2016-04-27T11:09:49.724Z,44.83
2016-04-27T11:10:49.758Z,44.83
2016-04-27T11:11:49.807Z,44.73
2016-04-27T11:12:49.857Z,44.83
2016-04-27T11:13:49.891Z,44.93
2016-04-27T11:14:49.971Z,44.83
2016-04-27T11:15:49.990Z,44.83
2016-04-27T11:16:50.804Z,44.83
2016-04-27T11:17:50.121Z,44.73
2016-04-27T11:18:50.139Z,45.12
2016-04-27T11:19:50.188Z,44.73
2016-04-27T11:20:50.253Z,44.73
2016-04-27T11:21:51.537Z,44.73
2016-04-27T11:22:50.337Z,44.83
2016-04-27T11:23:51.745Z,44.93
2016-04-27T11:24:50.451Z,44.83
2016-04-27T11:25:50.501Z,44.83
2016-04-27T11:26:49.816Z,44.93
2016-04-27T11:27:50.600Z,44.73
2016-04-27T11:28:50.634Z,44.93
2016-04-27T11:29:50.715Z,44.73
2016-04-27T11:30:50.765Z,44.83
2016-04-27T11:31:50.799Z,44.83
2016-04-27T11:32:50.864Z,44.64
2016-04-27T11:33:50.913Z,44.73
2016-04-27T11:34:50.947Z,44.93
2016-04-27T11:35:50.997Z,44.73
2016-04-27T11:36:51.063Z,44.73
2016-04-27T11:37:51.019Z,44.73
2016-04-27T11:38:51.161Z,44.64
2016-04-27T11:39:51.195Z,44.73
2016-04-27T11:40:51.260Z,44.93
2016-04-27T11:41:51.310Z,44.73
2016-04-27T11:42:51.344Z,44.83
2016-04-27T11:43:51.393Z,44.73
2016-04-27T11:44:51.459Z,44.83
2016-04-27T11:45:51.492Z,44.54
2016-04-27T11:46:51.542Z,44.54
2016-04-27T11:47:51.607Z,44.64
2016-04-27T11:48:51.684Z,44.73
2016-04-27T11:49:51.779Z,44.54
2016-04-27T11:50:51.888Z,44.64
2016-04-27T11:51:51.968Z,44.93
2016-04-27T11:52:52.937Z,44.93
2016-04-27T11:53:52.014Z,44.73
2016-04-27T11:54:52.190Z,44.83
2016-04-27T11:55:52.287Z,44.64
2016-04-27T11:56:52.336Z,44.54
2016-04-27T11:57:52.386Z,44.64
2016-04-27T11:58:52.476Z,44.64
2016-04-27T11:59:52.532Z,44.73
2016-04-27T12:00:52.572Z,44.64
2016-04-27T12:01:52.642Z,44.54
2016-04-27T12:02:52.698Z,44.64
2016-04-27T12:03:52.721Z,44.73
2016-04-27T12:04:52.804Z,44.54
2016-04-27T12:05:52.824Z,44.73
2016-04-27T12:06:52.891Z,44.45
2016-04-27T12:07:55.208Z,44.64
2016-04-27T12:08:52.994Z,44.45
2016-04-27T12:09:53.060Z,44.64
2016-04-27T12:10:53.095Z,44.54
2016-04-27T12:11:53.145Z,44.64
2016-04-27T12:12:53.211Z,44.73
2016-04-27T12:13:53.277Z,44.64
2016-04-27T12:14:53.327Z,44.64
2016-04-27T12:15:53.361Z,44.64
2016-04-27T12:16:53.427Z,44.54
2016-04-27T12:17:53.445Z,44.64
2016-04-27T12:18:53.494Z,44.73
2016-04-27T12:19:53.561Z,44.64
2016-04-27T12:20:53.594Z,44.54
2016-04-27T12:21:53.643Z,44.54
2016-04-27T12:22:53.990Z,44.54
2016-04-27T12:23:53.837Z,44.45
2016-04-27T12:24:54.558Z,44.54
2016-04-27T12:25:53.702Z,44.64
2016-04-27T12:26:53.923Z,44.54
2016-04-27T12:27:53.941Z,44.45
2016-04-27T12:28:54.006Z,44.45
2016-04-27T12:29:53.899Z,44.64
2016-04-27T12:30:54.090Z,44.54
2016-04-27T12:31:54.155Z,44.54
2016-04-27T12:32:54.189Z,44.54
2016-04-27T12:33:54.270Z,44.54
2016-04-27T12:34:54.304Z,44.45
2016-04-27T12:35:54.353Z,44.54
2016-04-27T12:36:54.418Z,44.54
2016-04-27T12:37:54.843Z,44.45
2016-04-27T12:38:54.846Z,44.54
2016-04-27T12:39:54.552Z,44.54
2016-04-27T12:40:54.632Z,44.64
2016-04-27T12:41:54.651Z,44.45
2016-04-27T12:42:54.700Z,44.73
2016-04-27T12:43:54.750Z,44.54
2016-04-27T12:44:54.815Z,44.54
2016-04-27T12:45:54.864Z,44.64
2016-04-27T12:46:54.898Z,44.45
2016-04-27T12:47:54.948Z,44.54
2016-04-27T12:48:55.028Z,44.54
2016-04-27T12:49:55.047Z,44.54
2016-04-27T12:50:55.097Z,44.64
2016-04-27T12:51:55.161Z,44.64
2016-04-27T12:52:55.602Z,44.54
2016-04-27T12:53:55.089Z,44.64
2016-04-27T12:54:55.310Z,44.54